Time;durP1;ratioP1;P1;durP2;ratioP2;P2;SDS_P1;SDS_P2;PMS_P1;PMS_P2;Temp;Humidity;BMP_temperature;BMP_pressure;BME280_temperature;BME280_humidity;BME280_pressure;Samples;Min_cycle;Max_cycle;Signal;HPM_P1;HPM_P2
2021/04/28 00:01:33;;;;;;;8.40;3.30;;;;;;;10.63;57.44;96926.22;5022912;28;20271;-70
2021/04/28 00:04:00;;;;;;;4.60;2.90;;;;;;;10.57;58.51;96933.25;5018576;28;20203;-70
2021/04/28 00:06:27;;;;;;;4.77;3.30;;;;;;;10.52;57.88;96928.63;5029874;28;20662;-71
2021/04/28 00:08:53;;;;;;;4.67;2.80;;;;;;;10.35;58.73;96929.47;5026562;28;20663;-71
2021/04/28 00:11:20;;;;;;;4.50;2.77;;;;;;;10.50;57.56;96924.53;5021314;28;20228;-71
2021/04/28 00:13:47;;;;;;;7.13;3.00;;;;;;;10.48;57.01;96924.75;5022870;28;20205;-71
2021/04/28 00:16:14;;;;;;;4.43;2.83;;;;;;;10.50;58.78;96930.69;5021797;28;20207;-71
2021/04/28 00:18:42;;;;;;;6.00;3.40;;;;;;;10.44;58.41;96918.25;5012193;28;20204;-72
2021/04/28 00:21:09;;;;;;;4.50;2.90;;;;;;;10.36;58.16;96926.56;5017168;28;20222;-71
2021/04/28 00:23:36;;;;;;;7.80;2.83;;;;;;;10.38;57.63;96924.50;5022226;28;20659;-72
2021/04/28 00:26:03;;;;;;;8.13;3.00;;;;;;;10.38;58.27;96916.50;5024654;28;20232;-71
2021/04/28 00:28:29;;;;;;;8.70;3.27;;;;;;;10.38;57.33;96919.16;5023075;28;20205;-71
2021/04/28 00:30:56;;;;;;;7.23;3.27;;;;;;;10.32;57.51;96917.41;5017134;28;20598;-70
2021/04/28 00:33:23;;;;;;;5.80;3.07;;;;;;;10.29;58.67;96915.16;5026862;28;20206;-71
2021/04/28 00:35:51;;;;;;;9.23;3.37;;;;;;;10.28;59.24;96913.56;5020469;28;20216;-70
2021/04/28 00:38:17;;;;;;;5.27;2.83;;;;;;;10.29;58.65;96917.00;5029451;28;20209;-71
2021/04/28 00:40:44;;;;;;;4.80;2.93;;;;;;;10.26;59.07;96912.94;5026071;28;20321;-71
2021/04/28 00:43:11;;;;;;;4.83;3.27;;;;;;;10.17;59.10;96912.69;5017708;28;20209;-71
2021/04/28 00:45:38;;;;;;;4.23;2.57;;;;;;;10.18;58.73;96911.66;5029803;28;20232;-71
2021/04/28 00:48:09;;;;;;;5.83;3.30;;;;;;;10.03;59.27;96899.50;5020687;28;20304;-71
2021/04/28 00:50:37;;;;;;;4.40;2.80;;;;;;;10.07;59.63;96899.09;5018948;28;20352;-71
2021/04/28 00:53:06;;;;;;;8.13;2.97;;;;;;;10.07;59.30;96899.88;5022883;28;20203;-71
2021/04/28 00:55:33;;;;;;;3.83;2.83;;;;;;;10.03;60.60;96902.16;5020920;28;20206;-70
2021/04/28 00:58:01;;;;;;;6.77;3.10;;;;;;;9.91;61.03;96901.28;5019838;28;20208;-70
2021/04/28 01:00:28;;;;;;;6.93;3.23;;;;;;;9.99;59.45;96895.63;5017116;28;20226;-70
2021/04/28 01:02:55;;;;;;;3.87;2.77;;;;;;;10.02;59.74;96894.38;5023807;28;20209;-71
2021/04/28 01:05:22;;;;;;;8.37;2.80;;;;;;;10.04;59.65;96895.81;5023157;28;20225;-70
2021/04/28 01:07:50;;;;;;;6.80;3.20;;;;;;;9.97;60.56;96889.72;5022951;28;20671;-70
2021/04/28 01:10:20;;;;;;;6.77;3.10;;;;;;;9.93;59.78;96893.06;5029648;28;20590;-70
2021/04/28 01:12:47;;;;;;;7.30;3.10;;;;;;;9.90;60.59;96888.19;5020117;28;20216;-71
2021/04/28 01:15:15;;;;;;;8.70;3.50;;;;;;;9.87;60.51;96886.78;5022341;28;20199;-70
2021/04/28 01:17:42;;;;;;;5.70;3.40;;;;;;;9.88;60.50;96885.75;5029104;28;20262;-70
2021/04/28 01:20:12;;;;;;;5.80;2.70;;;;;;;9.87;61.01;96886.78;5024362;28;20222;-70
2021/04/28 01:22:40;;;;;;;4.40;2.93;;;;;;;9.76;61.82;96884.88;5027458;28;20211;-70
2021/04/28 01:25:10;;;;;;;6.47;3.50;;;;;;;9.78;62.23;96882.78;5022157;28;20245;-70
2021/04/28 01:27:38;;;;;;;6.43;3.03;;;;;;;9.77;61.92;96880.34;5028843;28;20215;-70
2021/04/28 01:30:07;;;;;;;9.03;3.60;;;;;;;9.74;61.98;96880.81;5025717;28;20711;-70
2021/04/28 01:32:34;;;;;;;8.33;3.57;;;;;;;9.80;61.75;96879.91;5028572;28;20214;-70
2021/04/28 01:35:02;;;;;;;10.23;2.83;;;;;;;9.79;61.63;96876.41;5025868;28;20205;-70
2021/04/28 01:37:29;;;;;;;4.97;3.20;;;;;;;9.79;62.04;96880.94;5022054;28;20215;-70
2021/04/28 01:39:57;;;;;;;6.90;3.30;;;;;;;9.82;62.22;96883.97;5019725;28;20232;-69
2021/04/28 01:42:25;;;;;;;6.33;3.70;;;;;;;9.77;62.81;96880.34;5025138;28;20205;-70
2021/04/28 01:44:52;;;;;;;5.63;3.57;;;;;;;9.67;62.96;96882.72;5019732;28;20231;-70
2021/04/28 01:47:20;;;;;;;6.20;3.50;;;;;;;9.73;62.17;96884.47;5025944;28;20208;-69
2021/04/28 01:49:47;;;;;;;7.37;3.37;;;;;;;9.70;62.48;96885.72;5023900;28;20628;-69
2021/04/28 01:52:15;;;;;;;7.97;4.20;;;;;;;9.71;62.57;96891.88;5021966;28;20218;-69
2021/04/28 01:54:42;;;;;;;9.20;3.97;;;;;;;9.62;62.43;96883.38;5018519;28;20216;-69
2021/04/28 01:57:10;;;;;;;10.57;4.10;;;;;;;9.61;63.33;96883.59;5025651;28;20205;-70
2021/04/28 01:59:37;;;;;;;7.37;3.80;;;;;;;9.62;63.39;96883.38;5014512;28;20233;-70
2021/04/28 02:02:05;;;;;;;6.07;3.53;;;;;;;9.69;63.33;96878.00;5021070;28;20691;-70
2021/04/28 02:04:32;;;;;;;6.80;4.03;;;;;;;9.71;63.20;96878.56;5028478;28;20212;-69
2021/04/28 02:06:59;;;;;;;7.00;3.53;;;;;;;9.65;63.32;96874.94;5023413;28;20233;-69
2021/04/28 02:09:26;;;;;;;9.30;4.83;;;;;;;9.63;63.99;96876.19;5035070;28;20263;-69
2021/04/28 02:11:53;;;;;;;7.33;3.37;;;;;;;9.77;63.20;96877.66;5031202;28;20253;-70
2021/04/28 02:14:21;;;;;;;7.40;4.07;;;;;;;9.73;63.62;96871.16;5021112;28;20212;-70
2021/04/28 02:16:48;;;;;;;6.27;3.90;;;;;;;9.58;65.44;96870.72;5015507;28;20230;-69
2021/04/28 02:19:17;;;;;;;14.13;4.83;;;;;;;9.49;66.34;96864.09;5015195;28;20676;-69
2021/04/28 02:21:44;;;;;;;9.47;4.20;;;;;;;9.40;66.83;96863.56;5017255;28;20233;-70
2021/04/28 02:24:13;;;;;;;8.87;4.37;;;;;;;9.48;66.49;96862.47;5025451;28;20225;-70
2021/04/28 02:26:40;;;;;;;12.80;4.20;;;;;;;9.32;67.57;96857.69;5023234;28;20225;-70
2021/04/28 02:29:07;;;;;;;10.33;4.33;;;;;;;9.31;66.65;96853.41;5030053;28;20205;-70
2021/04/28 02:31:36;;;;;;;9.50;4.13;;;;;;;9.37;67.05;96856.00;5022348;28;20218;-70
2021/04/28 02:34:04;;;;;;;6.83;3.90;;;;;;;9.43;66.43;96851.66;5026155;28;20282;-71
2021/04/28 02:36:32;;;;;;;8.60;4.43;;;;;;;9.33;67.95;96852.16;5028048;28;20205;-70
2021/04/28 02:39:02;;;;;;;7.23;4.17;;;;;;;9.34;67.54;96856.44;5016100;28;20217;-70
2021/04/28 02:41:29;;;;;;;11.07;4.57;;;;;;;9.34;67.89;96852.97;5019002;28;20212;-70
2021/04/28 02:43:57;;;;;;;8.77;4.60;;;;;;;9.35;68.04;96858.09;5024502;28;20889;-71
2021/04/28 02:46:24;;;;;;;6.57;4.17;;;;;;;9.41;67.87;96851.88;5028586;28;20257;-71
2021/04/28 02:48:52;;;;;;;8.53;4.10;;;;;;;9.30;69.26;96857.13;5024014;28;20206;-71
2021/04/28 02:51:19;;;;;;;8.30;4.00;;;;;;;9.19;70.77;96852.53;5030502;28;20232;-71
2021/04/28 02:53:46;;;;;;;7.53;3.60;;;;;;;9.17;71.44;96847.41;5020006;28;20206;-70
2021/04/28 02:56:14;;;;;;;10.17;3.93;;;;;;;9.09;72.05;96845.03;5030853;28;20201;-70
2021/04/28 02:58:41;;;;;;;6.13;3.70;;;;;;;9.19;71.41;96850.66;5024772;28;20620;-70
2021/04/28 03:01:09;;;;;;;7.27;4.40;;;;;;;9.24;71.38;96850.00;5014823;28;20233;-70
2021/04/28 03:03:38;;;;;;;6.63;3.70;;;;;;;9.28;71.38;96845.88;5018395;28;20210;-70
2021/04/28 03:06:07;;;;;;;7.13;4.20;;;;;;;9.19;71.27;96848.00;5015589;28;20279;-70
2021/04/28 03:08:37;;;;;;;6.77;4.00;;;;;;;9.15;71.43;96846.81;5015972;28;20206;-71
2021/04/28 03:11:04;;;;;;;6.37;3.93;;;;;;;9.15;71.59;96846.81;5022980;28;20235;-70
2021/04/28 03:13:31;;;;;;;6.53;3.50;;;;;;;9.29;70.49;96842.19;5026068;28;20211;-71
2021/04/28 03:15:57;;;;;;;10.63;4.50;;;;;;;9.19;71.67;96849.84;5023900;28;20207;-71
2021/04/28 03:18:24;;;;;;;13.33;4.80;;;;;;;9.16;72.01;96842.31;5016130;28;20220;-71
2021/04/28 03:20:53;;;;;;;8.63;4.33;;;;;;;9.14;72.18;96842.50;5012634;28;20229;-71
2021/04/28 03:23:20;;;;;;;8.30;4.03;;;;;;;9.12;72.16;96844.59;5019218;28;20226;-71
2021/04/28 03:25:47;;;;;;;5.70;3.83;;;;;;;9.05;72.74;96841.19;5026977;28;20225;-71
2021/04/28 03:28:15;;;;;;;6.90;4.40;;;;;;;8.77;74.64;96840.03;5021694;28;20207;-70
2021/04/28 03:30:41;;;;;;;15.60;3.90;;;;;;;8.84;75.25;96844.22;5020694;28;20227;-70
2021/04/28 03:33:08;;;;;;;6.57;3.90;;;;;;;8.88;75.05;96849.97;5021662;28;20569;-70
2021/04/28 03:35:35;;;;;;;6.53;4.13;;;;;;;8.94;74.42;96844.56;5017433;28;20231;-70
2021/04/28 03:38:02;;;;;;;9.53;4.10;;;;;;;8.94;74.47;96844.56;5014318;28;20231;-70
2021/04/28 03:40:31;;;;;;;8.77;4.40;;;;;;;8.93;74.44;96847.44;5018850;28;20244;-70
2021/04/28 03:42:58;;;;;;;8.67;4.20;;;;;;;8.96;74.62;96845.16;5015916;28;20214;-71
2021/04/28 03:45:24;;;;;;;10.13;4.40;;;;;;;8.95;73.89;96840.88;5026294;28;20229;-70
2021/04/28 03:47:51;;;;;;;7.47;4.20;;;;;;;8.98;74.32;96842.28;5013003;28;20208;-71
2021/04/28 03:50:18;;;;;;;10.67;4.30;;;;;;;8.86;75.96;96844.03;5013839;28;20236;-69
2021/04/28 03:52:45;;;;;;;7.17;4.30;;;;;;;8.81;76.66;96847.34;5025102;28;20225;-70
2021/04/28 03:55:13;;;;;;;6.73;4.17;;;;;;;8.82;77.43;96842.81;5015237;28;20676;-70
2021/04/28 03:57:41;;;;;;;10.07;4.43;;;;;;;8.84;77.92;96843.44;5023227;28;20273;-70
2021/04/28 04:00:09;;;;;;;6.97;4.20;;;;;;;8.80;78.86;96837.75;5016666;28;20596;-70
2021/04/28 04:02:36;;;;;;;8.23;5.30;;;;;;;8.83;79.11;96847.94;5025943;28;20206;-70
2021/04/28 04:05:03;;;;;;;15.23;5.03;;;;;;;8.88;78.31;96852.63;5020347;28;20211;-70
2021/04/28 04:07:30;;;;;;;7.77;4.20;;;;;;;8.84;78.08;96846.88;5012616;28;20204;-70
2021/04/28 04:09:57;;;;;;;8.27;4.43;;;;;;;8.76;79.18;96854.34;5027569;28;20999;-70
2021/04/28 04:12:23;;;;;;;7.57;4.13;;;;;;;8.70;79.81;96855.22;5020812;28;20201;-70
2021/04/28 04:14:51;;;;;;;6.40;4.60;;;;;;;8.77;80.45;96856.78;5019975;28;20210;-70
2021/04/28 04:17:18;;;;;;;9.50;4.40;;;;;;;8.81;80.58;96858.00;5016536;28;20198;-70
2021/04/28 04:19:45;;;;;;;8.60;4.37;;;;;;;8.84;80.73;96860.19;5025537;28;20234;-70
2021/04/28 04:22:13;;;;;;;9.33;4.70;;;;;;;8.85;80.51;96861.84;5027186;28;20304;-70
2021/04/28 04:24:40;;;;;;;8.87;4.53;;;;;;;8.86;80.17;96858.16;5016193;28;20200;-70
2021/04/28 04:27:07;;;;;;;8.47;4.53;;;;;;;9.07;78.12;96865.72;5019514;28;20635;-70
2021/04/28 04:29:33;;;;;;;10.93;4.43;;;;;;;9.12;77.51;96871.22;5025112;28;20219;-70
2021/04/28 04:32:01;;;;;;;8.13;4.07;;;;;;;9.25;76.13;96871.09;5020081;28;20206;-70
2021/04/28 04:34:28;;;;;;;8.70;4.40;;;;;;;9.22;76.73;96863.53;5017437;28;20579;-70
2021/04/28 04:36:55;;;;;;;8.83;5.57;;;;;;;9.37;75.52;96868.50;5021593;28;20209;-70
2021/04/28 04:39:21;;;;;;;11.67;4.93;;;;;;;9.32;75.94;96866.50;5020407;28;20206;-70
2021/04/28 04:41:48;;;;;;;10.03;4.83;;;;;;;9.35;76.02;96868.75;5027197;28;20211;-70
2021/04/28 04:44:15;;;;;;;14.07;4.97;;;;;;;9.49;75.17;96866.75;5015907;28;20214;-70
2021/04/28 04:46:42;;;;;;;6.70;4.60;;;;;;;9.47;75.27;96864.28;5023646;28;20284;-70
2021/04/28 04:49:10;;;;;;;8.60;4.63;;;;;;;9.56;75.48;96865.63;5019937;28;20200;-70
2021/04/28 04:51:37;;;;;;;11.77;4.87;;;;;;;9.70;74.96;96863.63;5021631;28;20212;-70
2021/04/28 04:54:05;;;;;;;9.33;4.80;;;;;;;9.76;74.34;96871.56;5016756;28;20213;-70
2021/04/28 04:56:31;;;;;;;10.63;5.17;;;;;;;9.78;73.92;96863.31;5017073;28;20242;-71
2021/04/28 04:58:58;;;;;;;8.10;4.47;;;;;;;9.95;73.20;96867.81;5024924;28;20676;-71
2021/04/28 05:01:25;;;;;;;9.43;4.10;;;;;;;10.15;71.95;96870.25;5025770;28;20229;-71
2021/04/28 05:03:52;;;;;;;15.50;5.13;;;;;;;10.28;71.22;96864.72;5024933;28;20206;-70
2021/04/28 05:06:21;;;;;;;14.20;4.83;;;;;;;10.44;70.92;96874.75;5031406;28;20315;-71
2021/04/28 05:08:48;;;;;;;6.83;4.17;;;;;;;10.74;69.41;96876.34;5029070;28;20210;-70
2021/04/28 05:11:15;;;;;;;11.33;4.87;;;;;;;10.90;68.60;96880.22;5026192;28;20222;-69
2021/04/28 05:13:42;;;;;;;8.93;4.90;;;;;;;11.12;65.73;96881.28;5021514;28;20207;-77
2021/04/28 05:16:09;;;;;;;14.17;6.00;;;;;;;11.33;64.06;96881.53;5024808;28;20198;-71
2021/04/28 05:18:35;;;;;;;10.33;5.07;;;;;;;11.53;64.64;96873.97;5027125;28;20293;-74
2021/04/28 05:21:02;;;;;;;12.43;6.03;;;;;;;11.70;64.45;96865.25;5022667;28;20276;-77
2021/04/28 05:23:30;;;;;;;10.10;4.97;;;;;;;11.81;63.34;96875.88;5023732;28;20203;-69
2021/04/28 05:25:56;;;;;;;8.40;4.93;;;;;;;12.02;61.36;96879.81;5019473;28;20302;-70
2021/04/28 05:28:23;;;;;;;8.97;4.83;;;;;;;12.18;59.74;96879.06;5027266;28;20272;-71
2021/04/28 05:30:50;;;;;;;9.73;5.13;;;;;;;12.33;59.69;96878.28;5018050;28;20234;-71
2021/04/28 05:33:17;;;;;;;10.07;5.60;;;;;;;12.56;56.76;96887.28;5014231;28;20203;-73
2021/04/28 05:35:44;;;;;;;8.73;4.60;;;;;;;12.74;56.46;96880.63;5025969;28;20209;-79
2021/04/28 05:38:11;;;;;;;10.33;5.30;;;;;;;12.86;57.06;96885.13;5026051;28;20563;-76
2021/04/28 05:40:38;;;;;;;10.27;5.60;;;;;;;12.88;55.41;96884.63;5023873;28;20223;-80
2021/04/28 05:43:05;;;;;;;14.43;5.70;;;;;;;13.11;55.60;96881.03;5021954;28;20202;-74
2021/04/28 05:45:41;;;;;;;10.37;5.67;;;;;;;13.27;55.07;96890.13;5023644;28;20598;-71
2021/04/28 05:48:09;;;;;;;12.30;5.50;;;;;;;13.09;53.96;96893.03;5028713;28;20199;-71
2021/04/28 05:50:36;;;;;;;10.30;4.97;;;;;;;12.46;56.64;96881.75;5021134;28;20285;-74
2021/04/28 05:53:02;;;;;;;11.20;5.13;;;;;;;12.64;55.98;96890.38;5025704;28;20217;-74
2021/04/28 05:55:29;;;;;;;13.97;5.00;;;;;;;12.70;56.93;96884.06;5020139;28;20233;-73
2021/04/28 05:57:57;;;;;;;10.70;5.10;;;;;;;12.52;56.60;96884.25;5022287;28;20213;-70
2021/04/28 06:00:25;;;;;;;8.70;5.70;;;;;;;12.48;56.93;96893.81;5031540;28;20634;-70
2021/04/28 06:02:52;;;;;;;11.90;5.87;;;;;;;12.64;55.83;96888.50;5023011;28;20260;-70
2021/04/28 06:05:19;;;;;;;10.77;5.60;;;;;;;12.67;55.61;96889.88;5024710;28;20220;-70
2021/04/28 06:07:46;;;;;;;16.03;6.17;;;;;;;12.67;55.90;96887.19;5021595;28;20209;-70
2021/04/28 06:10:14;;;;;;;17.27;6.57;;;;;;;12.67;55.48;96891.75;5016144;28;20333;-70
2021/04/28 06:12:41;;;;;;;9.47;5.20;;;;;;;12.84;55.04;96893.41;5028468;28;20203;-70
2021/04/28 06:15:11;;;;;;;9.43;5.20;;;;;;;13.20;53.08;96887.59;5025306;28;20207;-70
2021/04/28 06:17:38;;;;;;;9.57;5.23;;;;;;;13.68;52.82;96878.94;5015245;28;20228;-70
2021/04/28 06:20:06;;;;;;;9.50;5.37;;;;;;;13.51;52.09;96883.50;5022191;28;20223;-70
2021/04/28 06:22:33;;;;;;;10.60;5.17;;;;;;;13.69;51.85;96888.59;5019122;28;20206;-70
2021/04/28 06:25:00;;;;;;;12.37;6.07;;;;;;;13.68;51.36;96885.09;5023510;28;20208;-70
2021/04/28 06:27:27;;;;;;;8.90;6.03;;;;;;;13.58;52.03;96882.25;5029079;28;20224;-70
2021/04/28 06:29:53;;;;;;;9.20;5.47;;;;;;;14.00;50.48;96888.75;5022724;28;20388;-70
2021/04/28 06:32:21;;;;;;;9.70;5.70;;;;;;;14.26;49.93;96887.19;5025724;28;20204;-70
2021/04/28 06:34:48;;;;;;;11.13;5.73;;;;;;;14.32;49.51;96891.56;5023536;28;20579;-71
2021/04/28 06:37:15;;;;;;;13.17;5.97;;;;;;;14.65;48.64;96894.06;5025725;28;20665;-71
2021/04/28 06:39:42;;;;;;;10.07;5.67;;;;;;;14.79;48.20;96892.63;5021598;28;20232;-70
2021/04/28 06:42:09;;;;;;;12.13;6.13;;;;;;;14.57;48.24;96894.53;5026803;28;20671;-70
2021/04/28 06:44:35;;;;;;;11.83;5.47;;;;;;;14.58;47.61;96888.09;5020765;28;20724;-70
2021/04/28 06:47:02;;;;;;;12.83;6.03;;;;;;;14.22;49.63;96886.91;5018601;28;20237;-71
2021/04/28 06:49:30;;;;;;;11.83;5.70;;;;;;;14.51;47.53;96892.84;5023232;28;20230;-75
2021/04/28 06:51:57;;;;;;;10.37;5.83;;;;;;;14.93;46.79;96900.00;5025892;28;20210;-71
2021/04/28 06:54:25;;;;;;;15.43;6.27;;;;;;;15.18;45.86;96897.53;5027211;28;20207;-74
2021/04/28 06:56:52;;;;;;;11.60;6.10;;;;;;;15.17;46.10;96897.78;5022064;28;20210;-73
2021/04/28 06:59:20;;;;;;;9.93;5.33;;;;;;;15.09;46.68;96893.69;5026379;28;20219;-72
2021/04/28 07:01:51;;;;;;;10.90;6.07;;;;;;;15.40;46.37;96887.50;5020076;28;20239;-70
2021/04/28 07:04:18;;;;;;;10.90;5.67;;;;;;;16.07;43.81;96888.47;5027077;28;20735;-71
2021/04/28 07:06:46;;;;;;;10.50;6.30;;;;;;;15.92;43.71;96888.38;5022772;28;20278;-75
2021/04/28 07:09:13;;;;;;;13.60;6.73;;;;;;;16.28;43.35;96884.78;5021006;28;20299;-73
2021/04/28 07:11:40;;;;;;;12.60;6.37;;;;;;;16.11;43.52;96886.06;5021909;28;20206;-74
2021/04/28 07:14:07;;;;;;;13.57;6.47;;;;;;;16.27;42.01;96893.09;5019199;28;20209;-73
2021/04/28 07:16:34;;;;;;;11.10;6.47;;;;;;;15.94;42.46;96898.88;5023143;28;20213;-70
2021/04/28 07:19:01;;;;;;;11.40;6.23;;;;;;;15.63;42.64;96889.00;5019672;28;20210;-72
2021/04/28 07:21:28;;;;;;;14.93;5.80;;;;;;;15.55;42.47;96893.00;5019566;28;20232;-71
2021/04/28 07:23:56;;;;;;;14.70;6.77;;;;;;;16.41;41.06;96892.38;5026890;28;20235;-78
2021/04/28 07:26:23;;;;;;;11.33;5.67;;;;;;;16.61;40.25;96891.66;5022638;28;20227;-71
2021/04/28 07:28:50;;;;;;;14.43;6.77;;;;;;;16.69;40.50;96900.00;5015103;28;20209;-70
2021/04/28 07:31:17;;;;;;;13.77;7.23;;;;;;;16.34;40.55;96904.44;5018120;28;20226;-72
2021/04/28 07:33:44;;;;;;;15.50;6.73;;;;;;;16.58;40.37;96905.63;5021692;28;20199;-76
2021/04/28 07:36:11;;;;;;;13.67;7.10;;;;;;;16.63;40.60;96903.78;5025048;28;20203;-73
2021/04/28 07:38:38;;;;;;;11.83;6.80;;;;;;;16.73;41.05;96894.91;5027115;28;20252;-74
2021/04/28 07:41:06;;;;;;;12.47;6.40;;;;;;;17.20;39.02;96900.88;5021528;28;20640;-75
2021/04/28 07:43:33;;;;;;;17.23;6.70;;;;;;;17.34;39.43;96902.78;5020514;28;20205;-78
2021/04/28 07:46:00;;;;;;;10.97;6.87;;;;;;;17.75;38.41;96907.09;5019484;28;20601;-72
2021/04/28 07:48:27;;;;;;;13.77;6.80;;;;;;;17.17;40.02;96899.53;5016260;28;20202;-73
2021/04/28 07:50:54;;;;;;;11.30;7.00;;;;;;;17.37;39.61;96901.44;5018576;28;20842;-73
2021/04/28 07:53:21;;;;;;;15.87;7.97;;;;;;;17.63;38.78;96908.47;5024294;28;20290;-73
2021/04/28 07:55:48;;;;;;;14.47;7.30;;;;;;;17.43;38.71;96909.25;5016549;28;20206;-73
2021/04/28 07:58:16;;;;;;;12.90;7.53;;;;;;;17.02;39.86;96899.50;5021235;28;20288;-73
2021/04/28 08:00:43;;;;;;;13.37;7.00;;;;;;;17.38;39.50;96894.97;5023703;28;20749;-71
2021/04/28 08:03:10;;;;;;;14.83;7.60;;;;;;;17.48;39.59;96903.88;5026797;28;20215;-74
2021/04/28 08:05:37;;;;;;;13.07;6.60;;;;;;;18.15;38.80;96898.06;5025342;28;20244;-75
2021/04/28 08:08:05;;;;;;;14.77;7.90;;;;;;;18.00;38.43;96898.94;5024669;28;20263;-78
2021/04/28 08:10:32;;;;;;;15.27;7.33;;;;;;;17.76;39.30;96897.09;5021921;28;20223;-79
2021/04/28 08:12:59;;;;;;;16.20;7.47;;;;;;;17.88;39.38;96897.63;5015764;28;20214;-75
2021/04/28 08:15:27;;;;;;;14.00;7.70;;;;;;;17.70;39.59;96903.56;5020469;28;20203;-75
2021/04/28 08:17:54;;;;;;;13.83;7.20;;;;;;;18.29;38.97;96899.91;5028159;28;20202;-73
2021/04/28 08:20:21;;;;;;;15.83;7.80;;;;;;;18.66;38.31;96903.00;5018608;28;20218;-74
2021/04/28 08:22:47;;;;;;;18.63;8.07;;;;;;;19.02;37.24;96898.19;5015961;28;20204;-70
2021/04/28 08:25:15;;;;;;;14.87;7.40;;;;;;;18.17;38.79;96899.41;5018860;28;20207;-69
2021/04/28 08:27:42;;;;;;;15.03;7.90;;;;;;;18.00;39.21;96893.53;5014265;28;20359;-72
2021/04/28 08:30:11;;;;;;;13.10;6.73;;;;;;;18.80;38.18;96895.09;5020835;28;20285;-74
2021/04/28 08:32:39;;;;;;;17.83;7.60;;;;;;;19.56;36.82;96888.06;5016735;28;20672;-72
2021/04/28 08:35:08;;;;;;;16.17;8.40;;;;;;;19.80;35.92;96897.00;5019674;28;20213;-73
2021/04/28 08:37:35;;;;;;;14.40;8.03;;;;;;;19.42;36.32;96892.50;5026293;28;20954;-74
2021/04/28 08:40:02;;;;;;;16.37;8.23;;;;;;;19.36;36.16;96893.66;5030864;28;20229;-74
2021/04/28 08:42:29;;;;;;;16.77;7.60;;;;;;;19.78;36.38;96902.72;5019234;28;20215;-69
2021/04/28 08:44:58;;;;;;;15.37;8.00;;;;;;;19.44;36.63;96893.00;5029230;28;20211;-73
2021/04/28 08:47:25;;;;;;;12.30;7.33;;;;;;;19.91;36.19;96885.78;5021535;28;20701;-73
2021/04/28 08:49:53;;;;;;;17.03;8.00;;;;;;;19.72;35.56;96884.13;5024136;28;20233;-74
2021/04/28 08:52:20;;;;;;;16.50;8.37;;;;;;;19.49;36.81;96877.56;5020521;28;20209;-71
2021/04/28 08:54:47;;;;;;;12.43;7.27;;;;;;;19.88;36.04;96880.16;5026978;28;20206;-72
2021/04/28 08:57:15;;;;;;;17.40;8.77;;;;;;;19.51;36.92;96879.97;5018149;28;20197;-73
2021/04/28 08:59:42;;;;;;;14.37;8.33;;;;;;;20.33;35.52;96871.53;5022890;28;20245;-72
2021/04/28 09:02:16;;;;;;;15.77;7.73;;;;;;;20.62;34.16;96881.16;5018802;28;20206;-73
2021/04/28 09:04:48;;;;;;;17.47;8.47;;;;;;;20.19;35.19;96876.03;5024389;28;20212;-73
2021/04/28 09:07:29;;;;;;;16.00;8.30;;;;;;;20.47;34.75;96875.16;5024073;28;20247;-73
2021/04/28 09:10:06;;;;;;;16.63;8.27;;;;;;;20.67;33.47;96878.41;5025928;28;20230;-74
2021/04/28 09:12:34;;;;;;;16.90;8.43;;;;;;;20.29;34.95;96878.63;5023115;28;20202;-72
2021/04/28 09:15:00;;;;;;;15.97;8.30;;;;;;;21.14;34.13;96867.44;5021022;28;20209;-73
2021/04/28 09:17:27;;;;;;;15.60;8.53;;;;;;;20.96;33.36;96867.44;5026401;28;20369;-72
2021/04/28 09:20:16;;;;;;;15.80;8.03;;;;;;;20.89;33.01;96881.38;5023028;28;20710;-72
2021/04/28 09:22:49;;;;;;;14.97;8.57;;;;;;;20.33;33.24;96877.78;5024696;28;20211;-73
2021/04/28 09:25:18;;;;;;;16.97;7.83;;;;;;;20.54;33.41;96867.47;5023486;28;20214;-73
2021/04/28 09:27:45;;;;;;;15.67;8.17;;;;;;;20.01;33.47;96879.47;5028136;28;20240;-72
2021/04/28 09:30:24;;;;;;;13.77;7.93;;;;;;;21.25;32.43;96865.34;5027951;28;20264;-73
2021/04/28 09:33:02;;;;;;;23.10;8.37;;;;;;;21.13;32.53;96875.88;5026023;28;20713;-74
2021/04/28 09:35:29;;;;;;;13.67;8.20;;;;;;;21.39;31.91;96880.59;5027616;28;20257;-73
2021/04/28 09:37:58;;;;;;;14.40;8.50;;;;;;;21.99;31.02;96879.53;5016801;28;20212;-74
2021/04/28 09:40:41;;;;;;;18.00;8.40;;;;;;;21.63;31.51;96880.47;5023233;28;20233;-74
2021/04/28 09:43:08;;;;;;;12.43;7.00;;;;;;;22.31;29.66;96874.03;5028656;28;20261;-76
2021/04/28 09:45:42;;;;;;;15.27;8.10;;;;;;;21.61;30.35;96872.63;5016395;28;20207;-75
2021/04/28 09:48:11;;;;;;;14.37;7.80;;;;;;;22.03;31.06;96866.16;5017247;28;20209;-75
2021/04/28 09:50:39;;;;;;;18.00;8.03;;;;;;;21.13;32.11;96867.72;5024639;28;20326;-73
2021/04/28 09:53:06;;;;;;;14.17;7.30;;;;;;;21.59;31.37;96860.44;5021643;28;20215;-75
2021/04/28 09:55:45;;;;;;;18.90;8.80;;;;;;;21.64;31.66;96869.28;5025423;28;20209;-75
2021/04/28 09:58:13;;;;;;;16.63;7.90;;;;;;;21.75;31.60;96862.63;5023986;28;20203;-73
2021/04/28 10:00:41;;;;;;;14.90;7.83;;;;;;;22.04;31.54;96859.66;5026464;28;20783;-75
2021/04/28 10:03:09;;;;;;;15.20;8.50;;;;;;;21.62;31.18;96859.84;5022671;28;20393;-78
2021/04/28 10:05:37;;;;;;;13.37;7.97;;;;;;;21.62;31.59;96855.22;5023615;28;20203;-76
2021/04/28 10:08:18;;;;;;;14.80;8.40;;;;;;;21.99;30.55;96857.81;5026857;28;20199;-76
2021/04/28 10:10:45;;;;;;;15.27;7.87;;;19.10;1.00;;;22.38;29.28;96865.47;5017509;28;20329;-76
2021/04/28 10:13:13;;;;;;;13.43;8.30;;;19.20;1.00;;;22.19;29.23;96864.78;5017475;28;20202;-77
2021/04/28 10:15:40;;;;;;;15.37;8.33;;;19.40;1.00;;;21.28;30.06;96862.06;5033005;28;20203;-79
2021/04/28 10:18:10;;;;;;;18.23;8.30;;;18.90;1.00;;;22.51;29.41;96857.34;5036663;28;20203;-80
2021/04/28 10:20:39;;;;;;;16.03;8.37;;;19.20;1.00;;;22.11;29.86;96863.56;5020915;28;20310;-79
2021/04/28 10:23:08;;;;;;;18.43;7.43;;;19.20;1.00;;;22.15;28.88;96850.19;5019365;28;20213;-79
2021/04/28 10:25:37;;;;;;;13.53;8.00;;;19.20;1.00;;;21.68;28.70;96850.50;5017425;28;20207;-78
2021/04/28 10:28:06;;;;;;;14.93;7.73;;;19.20;1.00;;;22.07;28.79;96845.44;5018685;28;20203;-76
2021/04/28 10:30:35;;;;;;;11.53;7.20;;;19.30;1.00;;;22.24;28.14;96848.38;5024522;28;20227;-79
2021/04/28 10:33:05;;;;;;;11.40;6.80;;;19.50;1.00;;;22.72;26.90;96849.53;5020545;28;20205;-77
2021/04/28 10:35:33;;;;;;;13.93;7.03;;;19.50;1.00;;;23.26;26.64;96847.47;5020508;28;20207;-78
2021/04/28 10:38:00;;;;;;;10.33;7.10;;;19.70;1.00;;;22.25;27.24;96858.91;5021916;28;20190;-81
2021/04/28 10:40:28;;;;;;;16.67;7.63;;;19.80;1.00;;;21.53;29.13;96839.94;5029568;28;20223;-74
2021/04/28 10:43:07;;;;;;;13.23;7.20;;;19.20;1.00;;;21.91;27.26;96844.13;5018781;28;20542;-76
2021/04/28 10:45:40;;;;;;;13.57;7.33;;;19.30;1.00;;;22.15;26.72;96844.75;5013366;28;20195;-77
2021/04/28 10:48:12;;;;;;;13.60;7.07;;;19.60;1.00;;;22.57;26.29;96839.00;5015355;28;20207;-77
2021/04/28 10:50:42;;;;;;;9.37;6.10;;;19.90;1.00;;;23.30;25.97;96837.56;5033746;28;20238;-78
2021/04/28 10:53:19;;;;;;;17.23;6.20;;;20.10;1.00;;;23.32;25.19;96845.44;5031222;28;20198;-82
2021/04/28 10:55:55;;;;;;;10.97;6.63;;;20.50;1.00;;;22.44;25.72;96859.66;5036134;28;20187;-76
2021/04/28 10:58:46;;;;;;;10.13;6.30;;;20.20;1.00;;;23.42;24.22;96861.50;5025793;28;20651;-80
2021/04/28 11:01:32;;;;;;;12.83;6.83;;;20.20;1.00;;;23.26;23.92;96860.28;5026962;28;20262;-79
2021/04/28 11:04:00;;;;;;;12.03;6.70;;;20.20;1.00;;;23.63;23.83;96857.97;5025755;28;20266;-79
2021/04/28 11:06:32;;;;;;;9.97;5.97;;;20.30;1.00;;;23.99;23.50;96855.13;5029328;28;20385;-79
2021/04/28 11:09:14;;;;;;;12.77;6.40;;;20.70;1.00;;;22.78;24.09;96853.75;5021176;28;20192;-76
2021/04/28 11:11:46;;;;;;;8.80;5.67;;;20.30;1.00;;;24.12;22.89;96843.34;5013822;28;20227;-78
2021/04/28 11:14:31;;;;;;;12.43;6.53;;;20.90;1.00;;;23.49;23.18;96842.81;5022947;28;20195;-76
2021/04/28 11:17:00;;;;;;;12.40;7.00;;;20.60;1.00;;;23.37;24.03;96832.50;5027426;28;20244;-75
2021/04/28 11:19:30;;;;;;;13.50;6.43;;;20.40;1.00;;;23.59;23.62;96842.56;5026698;28;20234;-74
2021/04/28 11:22:30;;;;;;;10.27;6.27;;;20.60;1.00;;;24.62;22.75;96831.00;5023447;28;20203;-75
2021/04/28 11:25:03;;;;;;;16.30;5.93;;;21.10;1.00;;;;;;5018925;28;20227;-75
2021/04/28 11:27:41;;;;;;;8.93;5.90;;;21.20;1.00;;;22.86;23.79;96844.88;5014713;28;20212;-75
2021/04/28 11:30:33;;;;;;;9.13;5.67;;;20.50;1.00;;;23.53;23.21;96841.06;5022074;28;20232;-73